sensor_id;sensor_type;location;lat;lon;timestamp;P1;durP1;ratioP1;P2;durP2;ratioP2
36247;SDS011;22287;50.824;5.644;2023-03-12T00:02:21;12.02;;;4.20;;
36247;SDS011;22287;50.824;5.644;2023-03-12T00:04:48;8.43;;;4.95;;
36247;SDS011;22287;50.824;5.644;2023-03-12T00:07:14;9.00;;;4.30;;
36247;SDS011;22287;50.824;5.644;2023-03-12T00:09:41;10.05;;;3.75;;
36247;SDS011;22287;50.824;5.644;2023-03-12T00:12:08;9.80;;;3.88;;
36247;SDS011;22287;50.824;5.644;2023-03-12T00:14:35;7.97;;;4.73;;
36247;SDS011;22287;50.824;5.644;2023-03-12T00:17:01;12.43;;;4.88;;
36247;SDS011;22287;50.824;5.644;2023-03-12T00:19:28;8.95;;;4.03;;
36247;SDS011;22287;50.824;5.644;2023-03-12T00:21:55;12.07;;;3.58;;
36247;SDS011;22287;50.824;5.644;2023-03-12T00:24:22;9.35;;;3.75;;
36247;SDS011;22287;50.824;5.644;2023-03-12T00:26:50;8.20;;;3.40;;
36247;SDS011;22287;50.824;5.644;2023-03-12T00:29:17;9.63;;;3.42;;
36247;SDS011;22287;50.824;5.644;2023-03-12T00:31:44;6.93;;;3.25;;
36247;SDS011;22287;50.824;5.644;2023-03-12T00:34:11;6.45;;;3.00;;
36247;SDS011;22287;50.824;5.644;2023-03-12T00:36:38;5.43;;;3.20;;
36247;SDS011;22287;50.824;5.644;2023-03-12T00:39:06;8.25;;;3.38;;
36247;SDS011;22287;50.824;5.644;2023-03-12T00:41:33;7.68;;;3.47;;
36247;SDS011;22287;50.824;5.644;2023-03-12T00:44:00;8.13;;;3.78;;
36247;SDS011;22287;50.824;5.644;2023-03-12T00:46:27;8.93;;;3.15;;
36247;SDS011;22287;50.824;5.644;2023-03-12T00:48:54;6.38;;;2.70;;
36247;SDS011;22287;50.824;5.644;2023-03-12T00:51:20;5.13;;;3.55;;
36247;SDS011;22287;50.824;5.644;2023-03-12T00:53:47;5.47;;;2.50;;
36247;SDS011;22287;50.824;5.644;2023-03-12T00:56:14;6.35;;;2.80;;
36247;SDS011;22287;50.824;5.644;2023-03-12T00:58:41;3.60;;;2.00;;
36247;SDS011;22287;50.824;5.644;2023-03-12T01:01:08;4.70;;;2.60;;
36247;SDS011;22287;50.824;5.644;2023-03-12T01:03:36;5.32;;;2.03;;
36247;SDS011;22287;50.824;5.644;2023-03-12T01:06:04;5.82;;;2.22;;
36247;SDS011;22287;50.824;5.644;2023-03-12T01:08:31;4.22;;;2.28;;
36247;SDS011;22287;50.824;5.644;2023-03-12T01:10:58;6.22;;;2.35;;
36247;SDS011;22287;50.824;5.644;2023-03-12T01:13:25;4.47;;;1.98;;
36247;SDS011;22287;50.824;5.644;2023-03-12T01:15:52;5.32;;;2.28;;
36247;SDS011;22287;50.824;5.644;2023-03-12T01:18:19;5.30;;;2.33;;
36247;SDS011;22287;50.824;5.644;2023-03-12T01:20:46;6.35;;;1.98;;
36247;SDS011;22287;50.824;5.644;2023-03-12T01:23:14;5.20;;;2.40;;
36247;SDS011;22287;50.824;5.644;2023-03-12T01:25:41;4.53;;;2.00;;
36247;SDS011;22287;50.824;5.644;2023-03-12T01:28:08;3.13;;;1.63;;
36247;SDS011;22287;50.824;5.644;2023-03-12T01:30:35;2.90;;;1.70;;
36247;SDS011;22287;50.824;5.644;2023-03-12T01:33:03;7.80;;;2.70;;
36247;SDS011;22287;50.824;5.644;2023-03-12T01:35:33;5.63;;;2.13;;
36247;SDS011;22287;50.824;5.644;2023-03-12T01:38:01;2.40;;;1.58;;
36247;SDS011;22287;50.824;5.644;2023-03-12T01:40:28;5.32;;;1.75;;
36247;SDS011;22287;50.824;5.644;2023-03-12T01:43:10;4.53;;;1.90;;
36247;SDS011;22287;50.824;5.644;2023-03-12T01:48:43;4.32;;;1.50;;
36247;SDS011;22287;50.824;5.644;2023-03-12T01:51:15;2.80;;;1.70;;
36247;SDS011;22287;50.824;5.644;2023-03-12T01:53:44;2.83;;;1.58;;
36247;SDS011;22287;50.824;5.644;2023-03-12T01:56:15;6.47;;;1.50;;
36247;SDS011;22287;50.824;5.644;2023-03-12T01:58:45;5.68;;;1.80;;
36247;SDS011;22287;50.824;5.644;2023-03-12T02:01:16;7.22;;;1.67;;
36247;SDS011;22287;50.824;5.644;2023-03-12T02:03:47;4.95;;;1.65;;
36247;SDS011;22287;50.824;5.644;2023-03-12T02:06:20;4.43;;;1.67;;
36247;SDS011;22287;50.824;5.644;2023-03-12T02:08:52;4.70;;;1.50;;
36247;SDS011;22287;50.824;5.644;2023-03-12T02:11:20;5.93;;;1.77;;
36247;SDS011;22287;50.824;5.644;2023-03-12T02:13:47;4.05;;;2.00;;
36247;SDS011;22287;50.824;5.644;2023-03-12T02:16:14;5.68;;;1.83;;
36247;SDS011;22287;50.824;5.644;2023-03-12T02:18:41;4.18;;;1.92;;
36247;SDS011;22287;50.824;5.644;2023-03-12T02:21:13;3.90;;;1.60;;
36247;SDS011;22287;50.824;5.644;2023-03-12T02:23:46;3.67;;;1.90;;
36247;SDS011;22287;50.824;5.644;2023-03-12T02:28:55;6.47;;;1.65;;
36247;SDS011;22287;50.824;5.644;2023-03-12T02:31:25;4.57;;;1.95;;
36247;SDS011;22287;50.824;5.644;2023-03-12T02:33:58;6.43;;;2.20;;
36247;SDS011;22287;50.824;5.644;2023-03-12T02:36:26;4.53;;;1.92;;
36247;SDS011;22287;50.824;5.644;2023-03-12T02:38:53;5.68;;;1.70;;
36247;SDS011;22287;50.824;5.644;2023-03-12T02:41:23;4.93;;;1.65;;
36247;SDS011;22287;50.824;5.644;2023-03-12T02:44:04;4.65;;;1.63;;
36247;SDS011;22287;50.824;5.644;2023-03-12T02:46:39;10.98;;;1.90;;
36247;SDS011;22287;50.824;5.644;2023-03-12T02:49:08;5.80;;;1.83;;
36247;SDS011;22287;50.824;5.644;2023-03-12T02:51:38;4.23;;;2.00;;
36247;SDS011;22287;50.824;5.644;2023-03-12T02:54:06;4.13;;;1.70;;
36247;SDS011;22287;50.824;5.644;2023-03-12T02:56:34;3.88;;;1.33;;
36247;SDS011;22287;50.824;5.644;2023-03-12T02:59:01;6.72;;;1.73;;
36247;SDS011;22287;50.824;5.644;2023-03-12T03:01:32;3.05;;;1.35;;
36247;SDS011;22287;50.824;5.644;2023-03-12T03:04:00;5.82;;;1.52;;
36247;SDS011;22287;50.824;5.644;2023-03-12T03:06:28;4.47;;;1.58;;
36247;SDS011;22287;50.824;5.644;2023-03-12T03:08:56;5.50;;;1.85;;
36247;SDS011;22287;50.824;5.644;2023-03-12T03:11:23;6.47;;;1.60;;
36247;SDS011;22287;50.824;5.644;2023-03-12T03:13:53;2.80;;;1.08;;
36247;SDS011;22287;50.824;5.644;2023-03-12T03:16:21;3.97;;;2.10;;
36247;SDS011;22287;50.824;5.644;2023-03-12T03:18:49;3.95;;;1.48;;
36247;SDS011;22287;50.824;5.644;2023-03-12T03:21:16;3.92;;;1.63;;
36247;SDS011;22287;50.824;5.644;2023-03-12T03:23:44;6.85;;;1.60;;
36247;SDS011;22287;50.824;5.644;2023-03-12T03:26:12;3.00;;;1.40;;
36247;SDS011;22287;50.824;5.644;2023-03-12T03:28:39;2.90;;;1.58;;
36247;SDS011;22287;50.824;5.644;2023-03-12T03:31:07;4.57;;;1.70;;
36247;SDS011;22287;50.824;5.644;2023-03-12T03:33:37;2.30;;;1.38;;
36247;SDS011;22287;50.824;5.644;2023-03-12T03:36:07;5.53;;;1.60;;
36247;SDS011;22287;50.824;5.644;2023-03-12T03:38:39;3.92;;;1.55;;
36247;SDS011;22287;50.824;5.644;2023-03-12T03:41:07;4.10;;;1.92;;
36247;SDS011;22287;50.824;5.644;2023-03-12T03:43:39;3.88;;;1.90;;
36247;SDS011;22287;50.824;5.644;2023-03-12T03:46:08;5.20;;;2.28;;
36247;SDS011;22287;50.824;5.644;2023-03-12T03:48:40;5.10;;;1.70;;
36247;SDS011;22287;50.824;5.644;2023-03-12T03:51:08;4.65;;;2.08;;
36247;SDS011;22287;50.824;5.644;2023-03-12T03:53:40;5.47;;;2.38;;
36247;SDS011;22287;50.824;5.644;2023-03-12T03:56:08;8.18;;;2.35;;
36247;SDS011;22287;50.824;5.644;2023-03-12T03:58:39;7.35;;;2.50;;
36247;SDS011;22287;50.824;5.644;2023-03-12T04:01:07;5.53;;;2.05;;
36247;SDS011;22287;50.824;5.644;2023-03-12T04:03:34;7.40;;;2.50;;
36247;SDS011;22287;50.824;5.644;2023-03-12T04:06:03;5.30;;;1.85;;
36247;SDS011;22287;50.824;5.644;2023-03-12T04:08:32;3.90;;;1.65;;
36247;SDS011;22287;50.824;5.644;2023-03-12T04:11:35;5.93;;;1.92;;
36247;SDS011;22287;50.824;5.644;2023-03-12T04:13:56;5.30;;;2.10;;
36247;SDS011;22287;50.824;5.644;2023-03-12T04:16:26;3.65;;;2.03;;
36247;SDS011;22287;50.824;5.644;2023-03-12T04:18:54;4.43;;;2.25;;
36247;SDS011;22287;50.824;5.644;2023-03-12T04:21:22;6.85;;;1.58;;
36247;SDS011;22287;50.824;5.644;2023-03-12T04:23:49;6.60;;;1.77;;
36247;SDS011;22287;50.824;5.644;2023-03-12T04:26:19;8.73;;;2.45;;
36247;SDS011;22287;50.824;5.644;2023-03-12T04:28:46;3.50;;;1.73;;
36247;SDS011;22287;50.824;5.644;2023-03-12T04:31:13;6.72;;;1.90;;
36247;SDS011;22287;50.824;5.644;2023-03-12T04:33:49;4.90;;;2.30;;
36247;SDS011;22287;50.824;5.644;2023-03-12T04:36:19;5.57;;;2.07;;
36247;SDS011;22287;50.824;5.644;2023-03-12T04:38:48;8.25;;;1.85;;
36247;SDS011;22287;50.824;5.644;2023-03-12T04:41:19;6.90;;;2.10;;
36247;SDS011;22287;50.824;5.644;2023-03-12T04:43:50;4.40;;;1.88;;
36247;SDS011;22287;50.824;5.644;2023-03-12T04:46:18;4.72;;;1.92;;
36247;SDS011;22287;50.824;5.644;2023-03-12T04:48:45;6.60;;;2.10;;
36247;SDS011;22287;50.824;5.644;2023-03-12T04:51:12;5.60;;;2.00;;
36247;SDS011;22287;50.824;5.644;2023-03-12T04:53:42;4.00;;;2.00;;
36247;SDS011;22287;50.824;5.644;2023-03-12T04:56:11;4.78;;;1.70;;
36247;SDS011;22287;50.824;5.644;2023-03-12T04:58:38;4.25;;;1.83;;
36247;SDS011;22287;50.824;5.644;2023-03-12T05:01:05;7.50;;;2.28;;
36247;SDS011;22287;50.824;5.644;2023-03-12T05:03:33;6.63;;;2.33;;
36247;SDS011;22287;50.824;5.644;2023-03-12T05:06:00;3.95;;;2.50;;
36247;SDS011;22287;50.824;5.644;2023-03-12T05:08:27;6.15;;;1.95;;
36247;SDS011;22287;50.824;5.644;2023-03-12T05:10:54;4.32;;;1.92;;
36247;SDS011;22287;50.824;5.644;2023-03-12T05:13:22;4.50;;;2.28;;
36247;SDS011;22287;50.824;5.644;2023-03-12T05:15:53;4.82;;;2.25;;
36247;SDS011;22287;50.824;5.644;2023-03-12T05:18:20;4.40;;;2.40;;
36247;SDS011;22287;50.824;5.644;2023-03-12T05:23:46;6.03;;;2.65;;
36247;SDS011;22287;50.824;5.644;2023-03-12T05:29:18;4.97;;;2.75;;
36247;SDS011;22287;50.824;5.644;2023-03-12T05:31:44;5.15;;;2.20;;
36247;SDS011;22287;50.824;5.644;2023-03-12T05:34:11;5.28;;;2.55;;
36247;SDS011;22287;50.824;5.644;2023-03-12T05:36:41;4.45;;;2.25;;
36247;SDS011;22287;50.824;5.644;2023-03-12T05:39:09;4.15;;;2.63;;
36247;SDS011;22287;50.824;5.644;2023-03-12T05:41:36;4.50;;;2.38;;
36247;SDS011;22287;50.824;5.644;2023-03-12T05:44:10;5.03;;;2.75;;
36247;SDS011;22287;50.824;5.644;2023-03-12T05:46:39;5.05;;;2.70;;
36247;SDS011;22287;50.824;5.644;2023-03-12T05:49:23;5.88;;;2.50;;
36247;SDS011;22287;50.824;5.644;2023-03-12T05:51:51;4.45;;;2.30;;
36247;SDS011;22287;50.824;5.644;2023-03-12T05:54:20;5.78;;;2.92;;
36247;SDS011;22287;50.824;5.644;2023-03-12T05:56:49;4.15;;;2.50;;
36247;SDS011;22287;50.824;5.644;2023-03-12T05:59:18;4.18;;;2.50;;
36247;SDS011;22287;50.824;5.644;2023-03-12T06:01:44;7.95;;;2.80;;
36247;SDS011;22287;50.824;5.644;2023-03-12T06:04:11;8.98;;;3.20;;
36247;SDS011;22287;50.824;5.644;2023-03-12T06:06:38;5.50;;;2.38;;
36247;SDS011;22287;50.824;5.644;2023-03-12T06:09:05;5.70;;;2.75;;
36247;SDS011;22287;50.824;5.644;2023-03-12T06:11:33;3.67;;;2.13;;
36247;SDS011;22287;50.824;5.644;2023-03-12T06:14:00;3.90;;;2.38;;
36247;SDS011;22287;50.824;5.644;2023-03-12T06:16:28;3.97;;;2.45;;
36247;SDS011;22287;50.824;5.644;2023-03-12T06:18:56;4.07;;;2.20;;
36247;SDS011;22287;50.824;5.644;2023-03-12T06:21:25;7.07;;;2.83;;
36247;SDS011;22287;50.824;5.644;2023-03-12T06:23:54;4.80;;;3.10;;
36247;SDS011;22287;50.824;5.644;2023-03-12T06:26:27;4.07;;;2.50;;
36247;SDS011;22287;50.824;5.644;2023-03-12T06:28:54;6.22;;;2.65;;
36247;SDS011;22287;50.824;5.644;2023-03-12T06:31:21;5.70;;;2.40;;
36247;SDS011;22287;50.824;5.644;2023-03-12T06:33:49;4.72;;;2.88;;
36247;SDS011;22287;50.824;5.644;2023-03-12T06:36:16;5.30;;;2.95;;
36247;SDS011;22287;50.824;5.644;2023-03-12T06:38:43;3.97;;;2.33;;
36247;SDS011;22287;50.824;5.644;2023-03-12T06:41:11;5.18;;;2.80;;
36247;SDS011;22287;50.824;5.644;2023-03-12T06:43:40;4.93;;;3.08;;
36247;SDS011;22287;50.824;5.644;2023-03-12T06:46:08;7.28;;;3.20;;
36247;SDS011;22287;50.824;5.644;2023-03-12T06:48:38;4.03;;;2.67;;
36247;SDS011;22287;50.824;5.644;2023-03-12T06:51:07;4.63;;;3.20;;
36247;SDS011;22287;50.824;5.644;2023-03-12T06:53:35;3.58;;;2.85;;
36247;SDS011;22287;50.824;5.644;2023-03-12T06:56:04;4.10;;;2.90;;
36247;SDS011;22287;50.824;5.644;2023-03-12T06:58:31;5.00;;;3.50;;
36247;SDS011;22287;50.824;5.644;2023-03-12T07:00:58;5.25;;;3.70;;
36247;SDS011;22287;50.824;5.644;2023-03-12T07:03:44;4.90;;;3.50;;
36247;SDS011;22287;50.824;5.644;2023-03-12T07:06:12;7.55;;;3.30;;
36247;SDS011;22287;50.824;5.644;2023-03-12T07:08:40;4.82;;;3.28;;
36247;SDS011;22287;50.824;5.644;2023-03-12T07:11:09;6.25;;;3.40;;
36247;SDS011;22287;50.824;5.644;2023-03-12T07:13:36;6.13;;;3.67;;
36247;SDS011;22287;50.824;5.644;2023-03-12T07:16:06;7.38;;;4.32;;
36247;SDS011;22287;50.824;5.644;2023-03-12T07:18:33;6.10;;;3.97;;
36247;SDS011;22287;50.824;5.644;2023-03-12T07:21:01;5.70;;;3.90;;
36247;SDS011;22287;50.824;5.644;2023-03-12T07:23:28;5.32;;;4.25;;
36247;SDS011;22287;50.824;5.644;2023-03-12T07:25:55;9.45;;;5.15;;
36247;SDS011;22287;50.824;5.644;2023-03-12T07:28:24;4.05;;;3.65;;
36247;SDS011;22287;50.824;5.644;2023-03-12T07:30:51;7.53;;;4.57;;
36247;SDS011;22287;50.824;5.644;2023-03-12T07:33:18;7.55;;;3.72;;
36247;SDS011;22287;50.824;5.644;2023-03-12T07:35:47;8.23;;;4.22;;
36247;SDS011;22287;50.824;5.644;2023-03-12T07:38:17;5.65;;;3.67;;
36247;SDS011;22287;50.824;5.644;2023-03-12T07:40:44;8.88;;;4.82;;
36247;SDS011;22287;50.824;5.644;2023-03-12T07:43:15;6.95;;;4.43;;
36247;SDS011;22287;50.824;5.644;2023-03-12T07:45:45;9.18;;;4.75;;
36247;SDS011;22287;50.824;5.644;2023-03-12T07:48:12;7.50;;;4.18;;
36247;SDS011;22287;50.824;5.644;2023-03-12T07:50:40;8.55;;;4.47;;
36247;SDS011;22287;50.824;5.644;2023-03-12T07:53:09;6.82;;;4.55;;
36247;SDS011;22287;50.824;5.644;2023-03-12T07:55:37;9.73;;;5.53;;
36247;SDS011;22287;50.824;5.644;2023-03-12T07:58:03;9.20;;;5.63;;
36247;SDS011;22287;50.824;5.644;2023-03-12T08:00:31;11.15;;;5.72;;
36247;SDS011;22287;50.824;5.644;2023-03-12T08:02:57;10.63;;;5.13;;
36247;SDS011;22287;50.824;5.644;2023-03-12T08:05:25;8.23;;;5.53;;
36247;SDS011;22287;50.824;5.644;2023-03-12T08:07:52;11.32;;;5.13;;
36247;SDS011;22287;50.824;5.644;2023-03-12T08:10:22;11.55;;;5.85;;
36247;SDS011;22287;50.824;5.644;2023-03-12T08:12:49;9.15;;;5.68;;
36247;SDS011;22287;50.824;5.644;2023-03-12T08:15:16;8.85;;;5.22;;
36247;SDS011;22287;50.824;5.644;2023-03-12T08:17:43;10.30;;;5.28;;
36247;SDS011;22287;50.824;5.644;2023-03-12T08:20:10;9.48;;;5.45;;
36247;SDS011;22287;50.824;5.644;2023-03-12T08:22:38;9.35;;;4.78;;
36247;SDS011;22287;50.824;5.644;2023-03-12T08:25:06;8.48;;;4.93;;
36247;SDS011;22287;50.824;5.644;2023-03-12T08:27:34;8.77;;;5.60;;
36247;SDS011;22287;50.824;5.644;2023-03-12T08:30:01;9.05;;;5.22;;
36247;SDS011;22287;50.824;5.644;2023-03-12T08:32:31;11.10;;;5.68;;
36247;SDS011;22287;50.824;5.644;2023-03-12T08:34:59;10.60;;;5.68;;
36247;SDS011;22287;50.824;5.644;2023-03-12T08:37:25;11.13;;;5.82;;
36247;SDS011;22287;50.824;5.644;2023-03-12T08:39:53;10.85;;;5.45;;
36247;SDS011;22287;50.824;5.644;2023-03-12T08:42:20;8.82;;;4.93;;
36247;SDS011;22287;50.824;5.644;2023-03-12T08:44:47;12.57;;;5.78;;
36247;SDS011;22287;50.824;5.644;2023-03-12T08:47:14;10.27;;;5.25;;
36247;SDS011;22287;50.824;5.644;2023-03-12T08:49:44;9.98;;;5.68;;
36247;SDS011;22287;50.824;5.644;2023-03-12T08:52:11;11.52;;;5.38;;
36247;SDS011;22287;50.824;5.644;2023-03-12T08:54:38;8.30;;;5.30;;
36247;SDS011;22287;50.824;5.644;2023-03-12T08:57:04;11.68;;;5.63;;
36247;SDS011;22287;50.824;5.644;2023-03-12T08:59:31;10.50;;;5.72;;
36247;SDS011;22287;50.824;5.644;2023-03-12T09:01:58;11.55;;;5.95;;
36247;SDS011;22287;50.824;5.644;2023-03-12T09:04:26;12.02;;;5.80;;
36247;SDS011;22287;50.824;5.644;2023-03-12T09:06:52;9.98;;;5.43;;
36247;SDS011;22287;50.824;5.644;2023-03-12T09:09:19;10.05;;;6.32;;
36247;SDS011;22287;50.824;5.644;2023-03-12T09:11:46;10.70;;;5.95;;
36247;SDS011;22287;50.824;5.644;2023-03-12T09:14:13;8.63;;;5.65;;
36247;SDS011;22287;50.824;5.644;2023-03-12T09:16:59;11.60;;;7.38;;
36247;SDS011;22287;50.824;5.644;2023-03-12T09:19:27;12.68;;;6.50;;
36247;SDS011;22287;50.824;5.644;2023-03-12T09:21:54;15.18;;;7.00;;
36247;SDS011;22287;50.824;5.644;2023-03-12T09:24:21;14.93;;;7.85;;
36247;SDS011;22287;50.824;5.644;2023-03-12T09:26:48;15.65;;;7.25;;
36247;SDS011;22287;50.824;5.644;2023-03-12T09:29:15;15.30;;;7.97;;
36247;SDS011;22287;50.824;5.644;2023-03-12T09:31:42;17.40;;;7.90;;
36247;SDS011;22287;50.824;5.644;2023-03-12T09:34:09;13.63;;;7.32;;
36247;SDS011;22287;50.824;5.644;2023-03-12T09:36:36;22.58;;;8.07;;
36247;SDS011;22287;50.824;5.644;2023-03-12T09:39:03;17.70;;;7.68;;
36247;SDS011;22287;50.824;5.644;2023-03-12T09:41:30;24.95;;;8.73;;
36247;SDS011;22287;50.824;5.644;2023-03-12T09:44:12;22.05;;;9.13;;
36247;SDS011;22287;50.824;5.644;2023-03-12T09:52:17;21.40;;;8.50;;
36247;SDS011;22287;50.824;5.644;2023-03-12T09:55:05;25.92;;;8.07;;
36247;SDS011;22287;50.824;5.644;2023-03-12T09:57:37;23.35;;;9.18;;
36247;SDS011;22287;50.824;5.644;2023-03-12T10:00:05;19.58;;;9.32;;
36247;SDS011;22287;50.824;5.644;2023-03-12T10:05:12;30.17;;;9.73;;
36247;SDS011;22287;50.824;5.644;2023-03-12T10:07:59;26.77;;;8.55;;
36247;SDS011;22287;50.824;5.644;2023-03-12T10:21:38;28.27;;;8.93;;
36247;SDS011;22287;50.824;5.644;2023-03-12T10:26:43;25.90;;;8.55;;
36247;SDS011;22287;50.824;5.644;2023-03-12T10:29:21;23.05;;;8.32;;
36247;SDS011;22287;50.824;5.644;2023-03-12T10:31:59;26.92;;;10.63;;
36247;SDS011;22287;50.824;5.644;2023-03-12T10:37:22;30.23;;;8.77;;
36247;SDS011;22287;50.824;5.644;2023-03-12T10:39:53;25.98;;;8.32;;
36247;SDS011;22287;50.824;5.644;2023-03-12T10:42:22;24.00;;;7.53;;
36247;SDS011;22287;50.824;5.644;2023-03-12T10:44:51;24.60;;;6.85;;
36247;SDS011;22287;50.824;5.644;2023-03-12T10:52:42;20.70;;;6.07;;
36247;SDS011;22287;50.824;5.644;2023-03-12T10:55:18;17.75;;;5.25;;
36247;SDS011;22287;50.824;5.644;2023-03-12T10:57:55;20.52;;;5.70;;
36247;SDS011;22287;50.824;5.644;2023-03-12T11:00:23;20.92;;;6.18;;
36247;SDS011;22287;50.824;5.644;2023-03-12T11:03:05;18.85;;;4.63;;
36247;SDS011;22287;50.824;5.644;2023-03-12T11:05:45;20.10;;;5.45;;
36247;SDS011;22287;50.824;5.644;2023-03-12T11:10:52;15.93;;;4.07;;
36247;SDS011;22287;50.824;5.644;2023-03-12T11:15:54;22.98;;;4.78;;
36247;SDS011;22287;50.824;5.644;2023-03-12T11:21:22;20.60;;;5.18;;
36247;SDS011;22287;50.824;5.644;2023-03-12T11:26:23;22.42;;;4.03;;
36247;SDS011;22287;50.824;5.644;2023-03-12T11:31:38;17.95;;;4.35;;
36247;SDS011;22287;50.824;5.644;2023-03-12T11:34:20;23.67;;;4.93;;
36247;SDS011;22287;50.824;5.644;2023-03-12T11:37:26;20.25;;;4.88;;
36247;SDS011;22287;50.824;5.644;2023-03-12T11:51:48;21.63;;;5.13;;
36247;SDS011;22287;50.824;5.644;2023-03-12T11:54:37;24.08;;;4.63;;
36247;SDS011;22287;50.824;5.644;2023-03-12T11:57:15;17.42;;;4.47;;
36247;SDS011;22287;50.824;5.644;2023-03-12T12:11:03;18.23;;;3.90;;
36247;SDS011;22287;50.824;5.644;2023-03-12T12:24:39;22.42;;;4.38;;
36247;SDS011;22287;50.824;5.644;2023-03-12T12:27:35;18.20;;;3.70;;
36247;SDS011;22287;50.824;5.644;2023-03-12T12:38:07;19.45;;;3.42;;
36247;SDS011;22287;50.824;5.644;2023-03-12T12:40:45;16.00;;;3.35;;
36247;SDS011;22287;50.824;5.644;2023-03-12T12:43:30;19.70;;;4.13;;
36247;SDS011;22287;50.824;5.644;2023-03-12T12:46:06;21.77;;;3.88;;
36247;SDS011;22287;50.824;5.644;2023-03-12T12:48:42;18.45;;;3.33;;
36247;SDS011;22287;50.824;5.644;2023-03-12T12:51:12;15.30;;;3.50;;
36247;SDS011;22287;50.824;5.644;2023-03-12T12:56:18;23.30;;;3.83;;
36247;SDS011;22287;50.824;5.644;2023-03-12T13:01:42;23.17;;;3.70;;
36247;SDS011;22287;50.824;5.644;2023-03-12T13:04:15;20.98;;;3.92;;
36247;SDS011;22287;50.824;5.644;2023-03-12T13:07:00;24.08;;;3.55;;
36247;SDS011;22287;50.824;5.644;2023-03-12T13:09:39;18.88;;;3.78;;
36247;SDS011;22287;50.824;5.644;2023-03-12T13:12:12;17.85;;;3.38;;
36247;SDS011;22287;50.824;5.644;2023-03-12T13:14:45;15.73;;;3.20;;
36247;SDS011;22287;50.824;5.644;2023-03-12T13:17:21;17.83;;;3.63;;
36247;SDS011;22287;50.824;5.644;2023-03-12T13:19:49;17.73;;;3.67;;
36247;SDS011;22287;50.824;5.644;2023-03-12T13:28:00;23.05;;;2.95;;
36247;SDS011;22287;50.824;5.644;2023-03-12T13:30:48;16.48;;;4.22;;
36247;SDS011;22287;50.824;5.644;2023-03-12T13:33:17;21.05;;;4.55;;
36247;SDS011;22287;50.824;5.644;2023-03-12T13:36:01;19.67;;;3.60;;
36247;SDS011;22287;50.824;5.644;2023-03-12T13:38:38;20.02;;;3.22;;
36247;SDS011;22287;50.824;5.644;2023-03-12T13:49:59;20.35;;;3.33;;
36247;SDS011;22287;50.824;5.644;2023-03-12T13:52:40;20.10;;;3.53;;
36247;SDS011;22287;50.824;5.644;2023-03-12T13:57:40;18.00;;;3.70;;
36247;SDS011;22287;50.824;5.644;2023-03-12T14:02:44;19.10;;;2.85;;
36247;SDS011;22287;50.824;5.644;2023-03-12T14:05:15;18.20;;;3.17;;
36247;SDS011;22287;50.824;5.644;2023-03-12T14:15:43;13.87;;;3.03;;
36247;SDS011;22287;50.824;5.644;2023-03-12T14:18:19;16.60;;;2.47;;
36247;SDS011;22287;50.824;5.644;2023-03-12T14:23:18;15.67;;;2.47;;
36247;SDS011;22287;50.824;5.644;2023-03-12T14:25:47;18.35;;;3.70;;
36247;SDS011;22287;50.824;5.644;2023-03-12T14:28:22;15.90;;;2.80;;
36247;SDS011;22287;50.824;5.644;2023-03-12T14:30:56;17.73;;;4.35;;
36247;SDS011;22287;50.824;5.644;2023-03-12T14:33:30;20.67;;;3.13;;
36247;SDS011;22287;50.824;5.644;2023-03-12T14:36:05;15.73;;;2.97;;
36247;SDS011;22287;50.824;5.644;2023-03-12T14:38:42;19.98;;;3.17;;
36247;SDS011;22287;50.824;5.644;2023-03-12T14:41:33;22.75;;;4.70;;
36247;SDS011;22287;50.824;5.644;2023-03-12T14:44:04;19.88;;;3.22;;
36247;SDS011;22287;50.824;5.644;2023-03-12T14:46:43;18.10;;;3.15;;
36247;SDS011;22287;50.824;5.644;2023-03-12T14:49:18;11.05;;;2.63;;
36247;SDS011;22287;50.824;5.644;2023-03-12T14:51:45;11.00;;;3.50;;
36247;SDS011;22287;50.824;5.644;2023-03-12T14:54:15;12.80;;;3.08;;
36247;SDS011;22287;50.824;5.644;2023-03-12T14:56:48;17.15;;;2.63;;
36247;SDS011;22287;50.824;5.644;2023-03-12T15:04:44;12.98;;;2.15;;
36247;SDS011;22287;50.824;5.644;2023-03-12T15:07:15;14.25;;;2.92;;
36247;SDS011;22287;50.824;5.644;2023-03-12T15:09:47;18.00;;;2.85;;
36247;SDS011;22287;50.824;5.644;2023-03-12T15:12:25;16.23;;;3.72;;
36247;SDS011;22287;50.824;5.644;2023-03-12T15:15:05;18.80;;;2.60;;
36247;SDS011;22287;50.824;5.644;2023-03-12T15:17:34;24.38;;;3.25;;
36247;SDS011;22287;50.824;5.644;2023-03-12T15:20:03;14.80;;;2.67;;
36247;SDS011;22287;50.824;5.644;2023-03-12T15:22:35;19.13;;;2.60;;
36247;SDS011;22287;50.824;5.644;2023-03-12T15:25:24;21.23;;;2.63;;
36247;SDS011;22287;50.824;5.644;2023-03-12T15:28:21;18.80;;;3.17;;
36247;SDS011;22287;50.824;5.644;2023-03-12T15:33:41;15.40;;;3.17;;
36247;SDS011;22287;50.824;5.644;2023-03-12T15:38:46;14.00;;;2.80;;
36247;SDS011;22287;50.824;5.644;2023-03-12T15:41:26;21.65;;;3.67;;
36247;SDS011;22287;50.824;5.644;2023-03-12T15:43:59;13.30;;;2.38;;
36247;SDS011;22287;50.824;5.644;2023-03-12T15:46:27;18.42;;;3.30;;
36247;SDS011;22287;50.824;5.644;2023-03-12T15:48:57;18.00;;;2.88;;
36247;SDS011;22287;50.824;5.644;2023-03-12T15:51:35;15.93;;;2.65;;
36247;SDS011;22287;50.824;5.644;2023-03-12T15:56:38;15.85;;;4.22;;
36247;SDS011;22287;50.824;5.644;2023-03-12T15:59:19;14.48;;;2.90;;
36247;SDS011;22287;50.824;5.644;2023-03-12T16:01:51;16.23;;;2.95;;
36247;SDS011;22287;50.824;5.644;2023-03-12T16:04:19;12.55;;;2.58;;
36247;SDS011;22287;50.824;5.644;2023-03-12T16:06:47;16.25;;;3.17;;
36247;SDS011;22287;50.824;5.644;2023-03-12T16:09:19;10.65;;;2.03;;
36247;SDS011;22287;50.824;5.644;2023-03-12T16:11:50;17.13;;;3.10;;
36247;SDS011;22287;50.824;5.644;2023-03-12T16:14:21;19.73;;;4.15;;
36247;SDS011;22287;50.824;5.644;2023-03-12T16:16:52;15.60;;;2.60;;
36247;SDS011;22287;50.824;5.644;2023-03-12T16:19:20;15.93;;;3.55;;
36247;SDS011;22287;50.824;5.644;2023-03-12T16:21:47;14.02;;;2.40;;
36247;SDS011;22287;50.824;5.644;2023-03-12T16:24:15;16.40;;;2.83;;
36247;SDS011;22287;50.824;5.644;2023-03-12T16:26:45;15.98;;;3.50;;
36247;SDS011;22287;50.824;5.644;2023-03-12T16:29:15;18.05;;;2.97;;
36247;SDS011;22287;50.824;5.644;2023-03-12T16:31:43;13.07;;;2.45;;
36247;SDS011;22287;50.824;5.644;2023-03-12T16:34:14;18.40;;;3.78;;
36247;SDS011;22287;50.824;5.644;2023-03-12T16:36:41;17.35;;;3.15;;
36247;SDS011;22287;50.824;5.644;2023-03-12T16:39:08;18.33;;;3.78;;
36247;SDS011;22287;50.824;5.644;2023-03-12T16:41:35;18.58;;;3.17;;
36247;SDS011;22287;50.824;5.644;2023-03-12T16:44:02;13.73;;;3.20;;
36247;SDS011;22287;50.824;5.644;2023-03-12T16:46:32;18.83;;;4.80;;
36247;SDS011;22287;50.824;5.644;2023-03-12T16:49:18;19.85;;;4.25;;
36247;SDS011;22287;50.824;5.644;2023-03-12T16:51:46;20.48;;;5.53;;
36247;SDS011;22287;50.824;5.644;2023-03-12T16:54:13;13.82;;;2.70;;
36247;SDS011;22287;50.824;5.644;2023-03-12T16:56:41;21.20;;;3.38;;
36247;SDS011;22287;50.824;5.644;2023-03-12T16:59:12;27.13;;;4.10;;
36247;SDS011;22287;50.824;5.644;2023-03-12T17:01:47;20.77;;;4.65;;
36247;SDS011;22287;50.824;5.644;2023-03-12T17:07:02;21.02;;;3.55;;
36247;SDS011;22287;50.824;5.644;2023-03-12T17:09:28;20.17;;;3.67;;
36247;SDS011;22287;50.824;5.644;2023-03-12T17:11:55;19.42;;;3.08;;
36247;SDS011;22287;50.824;5.644;2023-03-12T17:14:22;20.70;;;3.40;;
36247;SDS011;22287;50.824;5.644;2023-03-12T17:16:49;16.55;;;3.35;;
36247;SDS011;22287;50.824;5.644;2023-03-12T17:19:16;24.50;;;3.22;;
36247;SDS011;22287;50.824;5.644;2023-03-12T17:21:43;13.68;;;3.28;;
36247;SDS011;22287;50.824;5.644;2023-03-12T17:24:11;18.40;;;3.00;;
36247;SDS011;22287;50.824;5.644;2023-03-12T17:26:39;18.40;;;3.00;;
36247;SDS011;22287;50.824;5.644;2023-03-12T17:29:07;22.35;;;3.65;;